Ridgeport, Indiana
Current Conditions -  °F | °C
As of 2:53 AM on Sunday 26 Oct 2014 (Local Time) from KBMG Reporting Station
Clear Clear  
Wind Chill: 54°   Ceiling: Unl
Heat Index: 54°   Visibility: 10mi
Dew Point: 41°   Wind: 3mph
Humidity: 62%   Direction: 340°NNW
Pressure: 29.99"   Gusts: NA
Location:  39.0306°N, 86.8553°W
Report Text: KBMG 260653Z 34003KT 10SM CLR 12/05 A2999 RMK AO2 SLP151 T01220050
Loading
Personal Weather Stations






























Interactive Weather Map
Tropical Storm Tracking
New forecast layout! Learn more

10-Day Weather Forecast

Advertisements
Track Severe Weather on mobile